En poursuivant votre navigation sur ce site, vous acceptez l'utilisation de cookies pour vous proposer des contenus et services adaptés. Mentions légales.
  

21/09/2019  Mise à jour des tableaux d'analyses décadaires : rubrique climatologie
01/09/2019 Mise en ligne de la synthèse climatologique d'AOUT : 
CLIQUEZ ICI
01/09/2019  Mise à jour des tableaux d'analyses décadaires, mensuelles et annuelles : rubrique climatologie   

NOAA COMPLET DU MOIS

Si l'entête du tableau ne s'affiche pas correctement, => actualisez la page (F5 avec Internet Explorer, Chrome...).
Utilisez l'ascenseur sur la droite des lignes du tableau pour faire défiler verticalement les jours du mois.

TABLEAU DES DONNEES COMPLETES NOAA de JUIN 2019

DATE TEMPERATURE
sous abri
TEMPARATURE 
au sol
VENT  et  Indice de Refroidissement Eolien  PRECIPITATIONS (en mm/m2)
et Intensité
PRESSION ATMOSPHERIQUE (en hPa) HUMIDITE de l'AIR RADIATIONS SOLAIRES (en W/m2)
Mini Moy. Maxi Mini Moy. Maxi Moyen Rafale I.R.E.
Minii
Précip. jour Cumul mois Intensité Maxi Mini Moy. Maxi Mini Moy. Maxi Pic maxi du jour Total jour
01/06/19 10.8° 20.4° 29.1° 8.9° 20.4° 32.2° 1.8km/h dir SSE 14.5km/h dir N 10.8° 0 0 1016.9 1019.7 1021.5 41% 69.5% 95% 900 91 504
02/06/19 15.3° 23.5° 31.7° 12.2° 23.1° 34.4° 5.1km/h dir SSE 25.7km/h dir S 15.3° 0 0 1012.6 1015.4 1017.3 30% 62% 90% 896 92 642
03/06/19 18.6° 23.1° 27.2° 15.6° 22.7° 31.1° 5.1km/h dir SSE 25.7km/h dir SSE 18.7° 0 0 1012 1013.9 1016.3 42% 56.2% 85% 1109 69 343
04/06/19 15.5° 22.6° 29.3° 13.3° 22.2° 31.7° 10.9km/h dir SSE 54.7km/h dir SE 15.5° 0 0 1005.4 1008.5 1012.4 34% 60.3% 93% 1076 81 864
05/06/19 12.7° 21.8° 29.6° 12.2° 22° 33.3° 8.7km/h dir SE 40.2km/h dir O 12.1° 0.2 0.2 1000.7 1005.8 1012.3 35% 52.9% 82% 1239 76 642
06/06/19 10.7° 15.3° 21.4° 10° 15.9° 26.1° 3.7km/h dir NNE 17.7km/h dir SO 10.7° 0 0.2 1011.1 1013.3 1015 47% 69.9% 87% 1181 75 871
07/06/19 10.9° 16.4° 24.7° 8.9° 16.2° 27.8° 8.9km/h dir SSE 53.1km/h dir SSO 10.9° 2 2.2 8.2mm/h 1007.3 1011.5 1020.1 33% 67.9% 88% 1088 58 130
08/06/19 8.8° 16.9° 23° 6.1° 17.3° 27.2° 4.2km/h dir NNE 22.5km/h dir ONO 8.9° 0 2.2 1020.1 1022.9 1024.9 31% 59.3% 94% 1044 96 806
09/06/19 11.2° 13.9° 16.1° 10° 13.5° 20° 2.6km/h dir O 17.7km/h dir E 11.2° 20 22.2 49.6mm/h 1015.6 1018.7 1022.4 58% 84.4% 96% 789 14 072
10/06/19 12.8° 14.4° 16.1° 12.8° 14.4° 17.2° 2.7km/h dir O 32.2km/h dir ONO 12.7° 14.6 36.8 30.2mm/h 1012.9 1014.3 1016.6 93% 95.8% 97% 417 9 566
11/06/19 11.6° 13.1° 15.1° 11.1° 13.4° 17.8° 1.4km/h dir SSE 12.9km/h dir SSE 11.6° 7.2 44 4.4mm/h 1010.5 1011.4 1013.3 85% 93.7% 96% 531 21 139
12/06/19 10.9° 16.2° 22.4° 10.6° 17° 26.1° 6.3km/h dir SSE 32.2km/h dir S 10.9° 8.6 52.6 4.6mm/h 1010.1 1011.7 1014.2 45% 73.8% 96% 1111 94 490
13/06/19 8.6° 18.9° 26.6° 6.7° 19.1° 29.4° 4.7km/h dir SSE 29km/h dir E 8.6° 0 52.6 1010.5 1013.2 1014.9 34% 59.6% 95% 925 96 463
14/06/19 15.6° 17.3° 20.2° 14.4° 16.9° 22.8° 4.5km/h dir ONO 24.1km/h dir N 15.1° 6.2 58.8 7.2mm/h 1008.6 1011.9 1015.9 55% 81.2% 95% 643 26 315
15/06/19 14.3° 16.8° 22.1° 12.8° 17.2° 26.7° 3.4km/h dir O 29km/h dir O 14.3° 16.8 75.6 39.2mm/h 1012.2 1016.5 1020.4 67% 88.2% 97% 1187 46 226
16/06/19 11.3° 18° 23.7° 10.6° 18.6° 26.7° 6.4km/h dir ONO 25.7km/h dir NNE 11.3° 0 75.6 1017.9 1020.2 1021.9 57% 77.7% 97% 1109 92 468
17/06/19 10.8° 19.6° 27.6° 9.4° 19.8° 30.6° 2.1km/h dir O 14.5km/h dir ONO 10.8° 0 75.6 1013.9 1016.1 1018 48% 74.3% 95% 918 95 607
18/06/19 14.2° 22.8° 29.9° 12.8° 22.6° 33.9° 5.3km/h dir SSE 35.4km/h dir SSE 14.2° 0 75.6 1010.2 1012.5 1014.7 41% 68.1% 96% 1120 78 367
19/06/19 19.1° 23.6° 29.8° 17.8° 23.3° 32.2° 8.4km/h dir SSE 43.5km/h dir S 19.1° 0.2 75.8 1008.2 1010.1 1012.6 36% 55.3% 89% 919 77 339
20/06/19 16.6° 20.2° 25.4° 15° 20.8° 29.4° 2.9km/h dir ONO 20.9km/h dir N 16.7° 4 79.8 20.2mm/h 1012.1 1013.5 1014.9 56% 82.4% 96% 1065 66 125
21/06/19 14.9° 19.7° 25.2° 14.4° 20° 28.3° 6.8km/h dir ONO 27.4km/h dir O 14.9° 0 79.8 1014 1014.9 1015.5 62% 80.9% 94% 1107 62 580
22/06/19 13.4° 18.8° 23.4° 12.2° 19.4° 27.2° 5km/h dir ONO 45.1km/h dir S 13.4° 9.8 89.6 73.4mm/h 1014.6 1015.5 1016.4 65% 80.1% 95% 1230 82 664
23/06/19 13.3° 21.1° 29.6° 12.2° 21.7° 33.3° 1.8km/h dir SSO 16.1km/h dir S 13.4° 0 89.6 1013.1 1014.5 1015.7 47% 77.7% 96% 947 88 211
24/06/19 15.1° 24.3° 31.8° 13.9° 24.1° 35° 3.1km/h dir ESE 29km/h dir SSE 15.1° 0 89.6 1013.7 1014.9 1015.6 41% 70.7% 95% 983 86 063
25/06/19 21° 27.3° 33.9° 18.9° 26.7° 37.2° 6.1km/h dir SE 29km/h dir S 21° 0 89.6 1014.7 1016.6 1018.8 44% 59.5% 71% 1009 77 837
26/06/19 21.9° 28.9° 35.9° 19.4° 27.9° 37.8° 5.5km/h dir SE 33.8km/h dir SSE 21.9° 0 89.6 1017.6 1019 1020.4 44% 62% 86% 879 90 680
27/06/19 19.1° 28.6° 36° 17.2° 28.1° 38.9° 3.1km/h dir ONO 17.7km/h dir N 19.1° 0 89.6 1016 1018.2 1020.2 50% 70.1% 93% 875 90 337
28/06/19 20.7° 27.3° 34.2° 18.9° 27.2° 36.1° 5km/h dir ONO 29km/h dir NNE 20.7° 0 89.6 1014.6 1015.8 1017 44% 72.7% 96% 867 87 148
29/06/19 16.3° 26° 36.2° 14.4° 25.5° 37.8° 2.1km/h dir SSO 16.1km/h dir S 16.3° 0 89.6 1012.5 1014.1 1015.2 32% 67.9% 94% 902 94 238
30/06/19 22.2° 28.8° 35.9° 19.4° 28.7° 38.9° 2.7km/h dir NNE 24.1km/h dir ONO 22.2° 0 89.6 1013.1 1014.8 1016.7 49% 69% 87% 847 84 497

RETOUR ACCUEIL


Date de création : 01/07/2019 : 23:00
Catégorie : ANNEE 2019 - MOIS PASSES - JUIN 2019
Page lue 192 fois


Réactions à cet article


Personne n'a encore laissé de commentaire.
Soyez donc le premier !